Time;durP1;ratioP1;P1;durP2;ratioP2;P2;SDS_P1;SDS_P2;PMS_P1;PMS_P2;Temp;Humidity;BMP_temperature;BMP_pressure;BME280_temperature;BME280_humidity;BME280_pressure;Samples;Min_cycle;Max_cycle;Signal;HPM_P1;HPM_P2
2021/07/31 00:01:48;;;;;;;23.45;13.77;;;;;;;;;;5030545;28;20109;-72
2021/07/31 00:04:14;;;;;;;18.52;12.88;;;;;;;;;;5020816;28;20034;-72
2021/07/31 00:06:40;;;;;;;21.17;11.88;;;;;;;;;;5018030;28;20032;-71
2021/07/31 00:09:06;;;;;;;19.30;12.32;;;;;;;;;;5030535;28;20043;-71
2021/07/31 00:11:32;;;;;;;21.67;12.65;;;;;;;;;;5014864;28;20025;-71
2021/07/31 00:13:58;;;;;;;23.55;13.35;;;;;;;;;;5024786;28;20024;-71
2021/07/31 00:16:25;;;;;;;17.88;12.23;;;;;;;;;;5020225;28;20049;-71
2021/07/31 00:18:51;;;;;;;25.88;12.93;;;;;;;;;;5020850;28;20017;-71
2021/07/31 00:21:17;;;;;;;18.33;12.10;;;;;;;;;;4998477;28;20099;-71
2021/07/31 00:29:51;;;;;;;20.52;12.57;;;;;;;;;;4890185;28;20028;-72
2021/07/31 00:32:17;;;;;;;21.05;12.10;;;;;;;;;;5031286;28;20059;-71
2021/07/31 00:34:43;;;;;;;19.65;12.65;;;;;;;;;;5007701;28;20389;-71
2021/07/31 00:37:14;;;;;;;21.67;12.80;;;;;;;;;;5017564;28;20069;-71
2021/07/31 00:39:40;;;;;;;22.13;11.75;;;;;;;;;;5008273;28;20017;-71
2021/07/31 00:42:07;;;;;;;25.95;11.77;;;;;;;;;;5026430;28;20041;-71
2021/07/31 00:44:37;;;;;;;19.80;11.68;;;;;;;;;;5028817;28;20056;-71
2021/07/31 00:47:05;;;;;;;21.45;12.35;;;;;;;;;;5026448;28;20549;-71
2021/07/31 00:49:31;;;;;;;21.38;11.77;;;;;;;;;;4990687;28;20010;-71
2021/07/31 00:51:58;;;;;;;22.70;12.10;;;;;;;;;;5001243;28;21839;-71
2021/07/31 00:54:24;;;;;;;24.08;12.50;;;;;;;;;;5014301;28;20021;-71
2021/07/31 00:56:50;;;;;;;21.05;11.68;;;;;;;;;;5020515;28;20037;-71
2021/07/31 00:59:16;;;;;;;22.95;11.98;;;;;;;;;;5018350;28;20032;-71
2021/07/31 01:01:42;;;;;;;22.20;11.45;;;;;;;;;;5015022;28;20029;-71
2021/07/31 01:04:09;;;;;;;19.67;12.00;;;;;;;;;;5018810;28;20038;-71
2021/07/31 01:06:38;;;;;;;15.45;12.85;;;;;;;;;;5031045;28;20021;-71
2021/07/31 01:09:04;;;;;;;20.80;12.98;;;;;;;;;;5021107;28;20517;-71
2021/07/31 01:11:32;;;;;;;21.92;12.57;;;;;;;;;;5010916;28;21764;-71
2021/07/31 01:13:58;;;;;;;27.05;13.02;;;;;;;;;;5013758;28;20516;-71
2021/07/31 01:16:25;;;;;;;23.60;12.60;;;;;;;;;;5016344;28;20144;-71
2021/07/31 01:18:51;;;;;;;25.80;14.82;;;;;;;;;;5018318;28;20044;-72
2021/07/31 01:21:37;;;;;;;24.27;14.50;;;;;;;;;;5015525;28;20049;-71
2021/07/31 01:24:03;;;;;;;21.77;11.95;;;;;;;;;;5024274;28;20028;-71
2021/07/31 01:26:30;;;;;;;26.50;13.38;;;;;;;;;;5026901;28;20079;-71
2021/07/31 01:28:56;;;;;;;28.92;18.13;;;;;;;;;;5018497;28;20223;-72
2021/07/31 01:31:22;;;;;;;23.02;16.60;;;;;;;;;;5013196;28;20034;-71
2021/07/31 01:33:48;;;;;;;26.02;16.83;;;;;;;;;;5013309;28;20026;-71
2021/07/31 01:36:14;;;;;;;31.35;18.20;;;;;;;;;;5001980;28;20052;-71
2021/07/31 01:38:40;;;;;;;35.28;20.00;;;;;;;;;;5005714;28;20108;-72
2021/07/31 01:41:07;;;;;;;46.80;26.25;;;;;;;;;;5017864;28;20018;-71
2021/07/31 01:43:33;;;;;;;54.20;31.20;;;;;;;;;;5010760;28;20045;-71
2021/07/31 01:46:03;;;;;;;47.92;30.45;;;;;;;;;;5023516;28;20021;-71
2021/07/31 01:48:29;;;;;;;53.40;33.78;;;;;;;;;;5017411;28;20036;-71
2021/07/31 01:50:55;;;;;;;73.55;39.15;;;;;;;;;;5016096;28;20040;-71
2021/07/31 01:53:38;;;;;;;66.88;39.08;;;;;;;;;;5016484;28;20071;-71
2021/07/31 01:56:05;;;;;;;60.38;36.25;;;;;;;;;;5010125;28;20033;-71
2021/07/31 01:58:31;;;;;;;46.20;29.38;;;;;;;;;;5026479;28;20020;-71
2021/07/31 02:00:58;;;;;;;47.92;27.25;;;;;;;;;;5021544;28;20436;-71
2021/07/31 02:03:24;;;;;;;45.80;27.23;;;;;;;;;;5024364;28;20026;-71
2021/07/31 02:05:51;;;;;;;61.85;36.90;;;;;;;;;;5021370;28;20033;-71
2021/07/31 02:08:17;;;;;;;67.75;40.42;;;;;;;;;;5013502;28;20021;-71
2021/07/31 02:10:54;;;;;;;74.32;39.85;;;;;;;;;;4935868;28;20614;-71
2021/07/31 02:13:20;;;;;;;39.97;23.70;;;;;;;;;;4942319;28;20925;-71
2021/07/31 02:15:46;;;;;;;26.30;16.95;;;;;;;;;;4950448;28;20041;-71
2021/07/31 02:18:13;;;;;;;23.00;14.02;;;;;;;;;;5021517;28;20705;-71
2021/07/31 02:20:39;;;;;;;31.63;12.95;;;;;;;;;;5024884;28;20045;-71
2021/07/31 02:23:05;;;;;;;22.73;12.13;;;;;;;;;;4914928;28;20097;-71
2021/07/31 02:25:32;;;;;;;18.67;12.20;;;;;;;;;;5016636;28;20101;-71
2021/07/31 02:27:58;;;;;;;28.77;14.93;;;;;;;;;;4852272;28;20025;-71
2021/07/31 02:30:25;;;;;;;29.27;16.17;;;;;;;;;;4941673;28;20037;-71
2021/07/31 02:32:51;;;;;;;29.35;17.17;;;;;;;;;;4973147;28;20042;-71
2021/07/31 02:35:17;;;;;;;33.03;19.17;;;;;;;;;;4966637;28;20923;-71
2021/07/31 02:37:44;;;;;;;33.58;20.52;;;;;;;;;;4967137;28;20072;-72
2021/07/31 02:40:10;;;;;;;44.72;23.13;;;;;;;;;;4983061;28;20430;-71
2021/07/31 02:42:37;;;;;;;32.35;22.77;;;;;;;;;;5007003;28;20512;-71
2021/07/31 02:45:04;;;;;;;34.35;21.55;;;;;;;;;;5013611;28;20026;-71
2021/07/31 02:47:30;;;;;;;33.78;22.25;;;;;;;;;;5011644;28;20030;-71
2021/07/31 02:49:59;;;;;;;37.28;21.77;;;;;;;;;;5020139;28;20026;-72
2021/07/31 02:52:25;;;;;;;31.63;20.92;;;;;;;;;;5022494;28;20100;-71
2021/07/31 02:54:51;;;;;;;33.05;20.88;;;;;;;;;;5024652;28;20545;-71
2021/07/31 02:57:21;;;;;;;31.05;20.27;;;;;;;;;;5021487;28;20025;-71
2021/07/31 02:59:47;;;;;;;30.95;19.98;;;;;;;;;;5021138;28;20478;-71
2021/07/31 03:02:13;;;;;;;27.45;19.02;;;;;;;;;;5006586;28;20038;-71
2021/07/31 03:04:39;;;;;;;28.83;20.38;;;;;;;;;;5002533;28;20025;-72
2021/07/31 03:07:05;;;;;;;33.78;19.65;;;;;;;;;;5022230;28;20034;-71
2021/07/31 03:09:31;;;;;;;33.67;20.42;;;;;;;;;;5015852;28;20030;-71
2021/07/31 03:12:15;;;;;;;25.15;18.88;;;;;;;;;;5013188;28;20029;-71
2021/07/31 03:14:41;;;;;;;34.78;20.92;;;;;;;;;;5014599;28;20021;-71
2021/07/31 03:17:11;;;;;;;31.25;19.83;;;;;;;;;;5014441;28;20080;-71
2021/07/31 03:19:37;;;;;;;36.80;20.50;;;;;;;;;;5011707;28;20120;-71
2021/07/31 03:22:04;;;;;;;29.65;20.27;;;;;;;;;;5014175;28;20029;-71
2021/07/31 03:24:34;;;;;;;36.08;19.45;;;;;;;;;;5006801;28;20671;-71
2021/07/31 03:27:01;;;;;;;29.90;19.65;;;;;;;;;;5012367;28;20141;-71
2021/07/31 03:29:27;;;;;;;42.67;20.63;;;;;;;;;;4919793;28;20208;-71
2021/07/31 03:31:53;;;;;;;27.98;19.58;;;;;;;;;;4939251;28;20445;-71
2021/07/31 03:34:21;;;;;;;36.05;20.40;;;;;;;;;;4976185;28;20072;-71
2021/07/31 03:36:51;;;;;;;27.98;18.55;;;;;;;;;;4990389;28;20488;-71
2021/07/31 03:39:19;;;;;;;31.45;19.23;;;;;;;;;;4987678;28;20552;-71
2021/07/31 03:41:45;;;;;;;27.70;19.23;;;;;;;;;;5014487;28;20026;-71
2021/07/31 03:44:28;;;;;;;30.42;19.13;;;;;;;;;;4991800;28;20025;-71
2021/07/31 03:46:55;;;;;;;28.25;17.98;;;;;;;;;;5014400;28;20107;-71
2021/07/31 03:49:21;;;;;;;41.30;18.42;;;;;;;;;;5005469;28;20029;-71
2021/07/31 03:51:47;;;;;;;29.35;16.88;;;;;;;;;;5012806;28;20029;-71
2021/07/31 03:54:13;;;;;;;22.77;17.02;;;;;;;;;;5014856;28;20018;-71
2021/07/31 03:56:40;;;;;;;24.80;16.23;;;;;;;;;;5006253;28;20136;-71
2021/07/31 03:59:09;;;;;;;30.30;15.80;;;;;;;;;;5004370;28;20390;-71
2021/07/31 04:01:35;;;;;;;25.50;16.05;;;;;;;;;;4998337;28;20490;-71
2021/07/31 04:04:04;;;;;;;26.38;16.75;;;;;;;;;;5009166;28;20128;-71
2021/07/31 04:06:30;;;;;;;25.77;16.98;;;;;;;;;;5008537;28;20063;-71
2021/07/31 04:08:56;;;;;;;26.10;16.98;;;;;;;;;;5008743;28;20397;-71
2021/07/31 04:11:26;;;;;;;26.45;17.48;;;;;;;;;;5009386;28;20034;-71
2021/07/31 04:13:54;;;;;;;25.02;17.40;;;;;;;;;;4997643;28;20061;-71
2021/07/31 04:16:21;;;;;;;27.80;17.52;;;;;;;;;;5011791;28;20498;-71
2021/07/31 04:18:51;;;;;;;25.23;17.52;;;;;;;;;;5007849;28;20029;-71
